Time;durP1;ratioP1;P1;durP2;ratioP2;P2;SDS_P1;SDS_P2;PMS_P1;PMS_P2;Temp;Humidity;BMP_temperature;BMP_pressure;BME280_temperature;BME280_humidity;BME280_pressure;Samples;Min_cycle;Max_cycle;Signal;HPM_P1;HPM_P2
2023/05/05 00:00:58;;;;;;;7.80;5.78;;;;;;;17.16;56.14;101292.44;5055050;28;20035;-77
2023/05/05 00:03:24;;;;;;;8.40;6.40;;;;;;;17.16;56.56;101311.72;5064885;28;20036;-78
2023/05/05 00:05:51;;;;;;;7.80;5.78;;;;;;;17.18;56.61;101317.72;5065534;28;20133;-77
2023/05/05 00:08:17;;;;;;;7.45;5.80;;;;;;;17.17;56.87;101308.13;5060276;28;20021;-77
2023/05/05 00:10:46;;;;;;;7.32;5.97;;;;;;;17.17;56.56;101304.66;5063469;28;20052;-77
2023/05/05 00:13:13;;;;;;;9.25;5.72;;;;;;;17.13;57.02;101310.06;5062128;28;20031;-77
2023/05/05 00:15:42;;;;;;;8.65;6.05;;;;;;;17.09;57.45;101303.22;5059394;28;20509;-77
2023/05/05 00:18:08;;;;;;;7.78;5.88;;;;;;;17.06;57.66;101305.16;5071160;28;20357;-77
2023/05/05 00:20:33;;;;;;;8.85;5.97;;;;;;;17.02;57.84;101301.81;5064161;28;20047;-77
2023/05/05 00:22:59;;;;;;;8.55;5.80;;;;;;;17.01;58.17;101299.25;5054830;28;20512;-77
2023/05/05 00:25:24;;;;;;;12.27;6.65;;;;;;;16.98;58.50;101294.97;5053904;28;20024;-77
2023/05/05 00:27:49;;;;;;;8.38;6.32;;;;;;;16.97;58.44;101306.41;5056977;28;20024;-77
2023/05/05 00:30:14;;;;;;;10.27;6.18;;;;;;;16.95;58.91;101306.50;5055004;28;20112;-77
2023/05/05 00:32:40;;;;;;;7.85;5.78;;;;;;;16.94;58.86;101315.28;5054840;28;20029;-77
2023/05/05 00:35:06;;;;;;;9.13;5.55;;;;;;;16.94;59.14;101320.53;5053712;28;20059;-77
2023/05/05 00:37:31;;;;;;;8.60;6.20;;;;;;;16.91;59.46;101319.81;5054664;28;20078;-77
2023/05/05 00:39:56;;;;;;;7.70;6.35;;;;;;;16.93;59.86;101317.94;5053773;28;20037;-77
2023/05/05 00:42:22;;;;;;;9.05;6.50;;;;;;;16.90;60.90;101323.38;5053737;28;20056;-78
2023/05/05 00:44:47;;;;;;;11.40;7.18;;;;;;;16.88;61.34;101325.22;5053713;28;20040;-78
2023/05/05 00:47:14;;;;;;;9.65;7.28;;;;;;;16.84;61.79;101314.84;5057173;28;20435;-78
2023/05/05 00:49:40;;;;;;;9.07;6.75;;;;;;;16.82;62.35;101318.47;5053681;28;20033;-77
2023/05/05 00:52:06;;;;;;;9.75;7.15;;;;;;;16.79;62.49;101315.97;5059762;28;20020;-76
2023/05/05 00:54:33;;;;;;;10.13;7.07;;;;;;;16.77;62.98;101304.66;5062394;28;20029;-78
2023/05/05 00:56:59;;;;;;;10.35;7.00;;;;;;;16.74;62.99;101310.88;5060460;28;20036;-77
2023/05/05 00:59:26;;;;;;;9.38;7.25;;;;;;;16.72;63.42;101314.50;5063944;28;20032;-77
2023/05/05 01:01:51;;;;;;;10.77;7.32;;;;;;;16.68;63.60;101319.91;5064094;28;20509;-78
2023/05/05 01:04:16;;;;;;;10.52;7.65;;;;;;;16.71;63.78;101332.06;5061688;28;20025;-78
2023/05/05 01:07:02;;;;;;;10.23;7.60;;;;;;;16.70;62.80;101332.97;5061939;28;20028;-78
2023/05/05 01:09:50;;;;;;;9.98;7.57;;;;;;;16.70;62.31;101330.34;5063799;28;20032;-78
2023/05/05 01:12:53;;;;;;;11.63;8.27;;;;;;;16.68;62.07;101326.94;5060459;28;20028;-77
2023/05/05 01:15:33;;;;;;;10.95;8.00;;;;;;;16.62;63.80;101335.06;5058432;28;20071;-77
2023/05/05 01:18:10;;;;;;;10.65;7.57;;;;;;;16.60;64.36;101332.53;5063531;28;20020;-77
2023/05/05 01:21:03;;;;;;;10.80;8.07;;;;;;;16.59;64.23;101343.09;5061077;28;20082;-78
2023/05/05 01:23:46;;;;;;;10.65;8.32;;;;;;;16.56;63.81;101341.44;5066547;28;20024;-78
2023/05/05 01:26:28;;;;;;;10.95;7.78;;;;;;;16.54;64.08;101343.28;5056038;28;20025;-77
2023/05/05 01:29:46;;;;;;;11.07;8.30;;;;;;;16.53;62.70;101347.69;5067798;28;20039;-77
2023/05/05 01:32:14;;;;;;;14.10;8.30;;;;;;;16.50;65.22;101341.72;5050588;28;20044;-77
2023/05/05 01:34:44;;;;;;;11.43;8.25;;;;;;;16.47;64.95;101347.94;5056296;28;20060;-77
2023/05/05 01:37:17;;;;;;;11.38;8.70;;;;;;;16.45;65.19;101349.78;5053846;28;20036;-78
2023/05/05 01:39:43;;;;;;;10.68;7.55;;;;;;;16.43;65.21;101350.78;5057221;28;20065;-78
2023/05/05 01:42:13;;;;;;;11.38;7.72;;;;;;;16.42;65.38;101354.31;5064195;28;20074;-78
2023/05/05 01:44:41;;;;;;;9.45;7.75;;;;;;;16.39;65.04;101350.06;5058319;28;20021;-77
2023/05/05 01:47:11;;;;;;;9.73;7.85;;;;;;;16.35;65.46;101345.84;5054442;28;20021;-77
2023/05/05 01:49:37;;;;;;;11.10;7.63;;;;;;;16.31;65.27;101341.63;5059060;28;20050;-77
2023/05/05 01:52:04;;;;;;;10.75;7.78;;;;;;;16.23;65.38;101329.69;5066141;28;20078;-77
2023/05/05 01:54:33;;;;;;;9.55;7.28;;;;;;;16.22;65.38;101319.25;5062061;28;20060;-77
2023/05/05 01:57:01;;;;;;;10.00;7.07;;;;;;;16.19;65.52;101308.88;5060553;28;20104;-77
2023/05/05 01:59:27;;;;;;;9.65;7.10;;;;;;;16.14;66.03;101309.06;5062452;28;20568;-77
2023/05/05 02:01:55;;;;;;;9.50;6.45;;;;;;;16.11;65.60;101316.22;5056707;28;20028;-77
2023/05/05 02:04:21;;;;;;;10.07;7.07;;;;;;;16.06;65.30;101326.91;5066889;28;20028;-77
2023/05/05 02:06:50;;;;;;;8.90;6.85;;;;;;;16.03;65.32;101327.03;5061659;28;20358;-77
2023/05/05 02:09:16;;;;;;;10.25;6.35;;;;;;;16.01;65.25;101326.25;5058432;28;20503;-77
2023/05/05 02:11:41;;;;;;;8.35;6.38;;;;;;;15.99;65.07;101322.84;5060206;28;20049;-77
2023/05/05 02:14:09;;;;;;;7.95;6.25;;;;;;;15.98;65.18;101324.59;5070491;28;20032;-77
2023/05/05 02:16:36;;;;;;;8.45;6.30;;;;;;;15.96;65.19;101333.44;5055480;28;20029;-77
2023/05/05 02:19:03;;;;;;;8.85;6.28;;;;;;;15.94;65.10;101349.28;5063154;28;20025;-77
2023/05/05 02:21:30;;;;;;;8.80;6.25;;;;;;;15.92;65.31;101343.22;5052389;28;20025;-77
2023/05/05 02:23:56;;;;;;;7.75;6.20;;;;;;;15.90;65.37;101347.69;5067619;28;20034;-77
2023/05/05 02:26:23;;;;;;;8.25;5.57;;;;;;;15.85;65.17;101347.88;5051923;28;20201;-77
2023/05/05 02:29:01;;;;;;;8.90;5.78;;;;;;;15.82;64.67;101344.44;5051872;28;20020;-77
2023/05/05 02:31:29;;;;;;;7.32;5.28;;;;;;;15.79;64.79;101345.44;5054448;28;20029;-77
2023/05/05 02:33:58;;;;;;;8.27;5.38;;;;;;;15.76;64.76;101340.31;5065390;28;20062;-77
2023/05/05 02:36:27;;;;;;;8.40;5.28;;;;;;;15.73;64.64;101348.28;5051367;28;20025;-77
2023/05/05 02:38:57;;;;;;;7.18;5.03;;;;;;;15.68;64.72;101343.25;5051812;28;20413;-77
2023/05/05 02:41:24;;;;;;;7.15;4.90;;;;;;;15.67;64.64;101346.78;5055902;28;20078;-77
2023/05/05 02:43:51;;;;;;;7.80;5.10;;;;;;;15.63;64.43;101346.03;5068818;28;20155;-77
2023/05/05 02:46:16;;;;;;;10.70;5.35;;;;;;;15.60;64.61;101355.81;5052573;28;20484;-77
2023/05/05 02:48:42;;;;;;;7.43;4.47;;;;;;;15.57;64.31;101369.88;5051422;28;20028;-77
2023/05/05 02:51:07;;;;;;;7.47;4.60;;;;;;;15.55;64.12;101365.63;5058149;28;20112;-77
2023/05/05 02:53:33;;;;;;;10.32;4.38;;;;;;;15.52;64.33;101370.97;5058956;28;20029;-77
2023/05/05 02:56:33;;;;;;;5.63;4.00;;;;;;;15.49;62.81;101369.34;5063941;28;20036;-77
2023/05/05 02:59:16;;;;;;;7.50;4.63;;;;;;;15.46;63.18;101372.06;5070545;28;20192;-77
2023/05/05 03:01:58;;;;;;;6.68;3.72;;;;;;;15.41;63.14;101377.50;5060087;28;20437;-77
2023/05/05 03:04:37;;;;;;;6.05;3.85;;;;;;;15.36;63.44;101378.56;5055375;28;20029;-77
2023/05/05 03:07:14;;;;;;;6.72;3.85;;;;;;;15.31;63.51;101371.72;5059242;28;20068;-77
2023/05/05 03:09:50;;;;;;;5.22;3.33;;;;;;;15.27;63.71;101366.66;5051980;28;20045;-77
2023/05/05 03:12:21;;;;;;;6.05;3.15;;;;;;;15.24;63.82;101375.47;5057606;28;20056;-77
2023/05/05 03:14:50;;;;;;;5.85;3.10;;;;;;;15.21;64.01;101372.13;5068195;28;20109;-77
2023/05/05 03:17:18;;;;;;;5.70;3.50;;;;;;;15.18;64.29;101375.72;5062860;28;20032;-77
2023/05/05 03:19:43;;;;;;;5.63;3.28;;;;;;;15.13;64.50;101373.25;5056124;28;20103;-77
2023/05/05 03:22:09;;;;;;;5.82;3.90;;;;;;;15.09;64.36;101371.66;5065758;28;20115;-77
2023/05/05 03:24:34;;;;;;;5.57;3.72;;;;;;;15.05;64.43;101377.06;5065707;28;20092;-77
2023/05/05 03:27:00;;;;;;;6.60;3.97;;;;;;;15.00;64.78;101385.97;5060344;28;20028;-77
2023/05/05 03:29:25;;;;;;;6.13;4.10;;;;;;;14.95;64.73;101382.63;5067796;28;20013;-80
2023/05/05 03:31:50;;;;;;;6.95;3.80;;;;;;;14.91;65.03;101388.88;5060664;28;20430;-80
2023/05/05 03:34:16;;;;;;;6.65;3.58;;;;;;;14.87;65.23;101382.91;5063312;28;20029;-77
2023/05/05 03:36:41;;;;;;;5.82;3.05;;;;;;;14.83;65.19;101389.16;5055645;28;20036;-77
2023/05/05 03:39:07;;;;;;;5.72;3.40;;;;;;;14.81;65.30;101392.75;5073330;28;20036;-77
2023/05/05 03:41:32;;;;;;;4.93;3.10;;;;;;;14.78;65.42;101398.09;5060514;28;20029;-77
2023/05/05 03:43:58;;;;;;;8.55;3.10;;;;;;;14.74;65.60;101392.09;5063111;28;20394;-77
2023/05/05 03:46:23;;;;;;;7.35;3.38;;;;;;;14.71;65.80;101395.66;5060143;28;20016;-77
2023/05/05 03:48:48;;;;;;;5.35;3.00;;;;;;;14.66;65.53;101394.97;5067794;28;20044;-77
2023/05/05 03:51:14;;;;;;;4.22;2.70;;;;;;;14.64;65.58;101401.13;5058952;28;20036;-77
2023/05/05 03:53:40;;;;;;;5.90;3.20;;;;;;;14.59;66.12;101393.44;5065974;28;20359;-77
2023/05/05 03:56:05;;;;;;;4.82;3.50;;;;;;;14.53;66.59;101388.41;5064501;28;20021;-77
2023/05/05 03:58:31;;;;;;;7.35;3.65;;;;;;;14.48;66.65;101385.94;5072975;28;20031;-77
2023/05/05 04:00:56;;;;;;;5.45;3.80;;;;;;;14.47;67.18;101401.72;5066551;28;20022;-77
2023/05/05 04:03:21;;;;;;;7.85;4.50;;;;;;;14.43;67.46;101406.22;5062919;28;20457;-77
2023/05/05 04:05:47;;;;;;;6.53;4.38;;;;;;;14.39;67.82;101410.66;5055038;28;20028;-77
2023/05/05 04:08:12;;;;;;;6.20;4.60;;;;;;;14.36;67.97;101408.13;5065190;28;20035;-77
2023/05/05 04:10:37;;;;;;;7.07;4.80;;;;;;;14.33;68.05;101410.88;5054462;28;20485;-77
2023/05/05 04:13:03;;;;;;;7.22;5.07;;;;;;;14.28;68.68;101404.94;5055553;28;20031;-77
2023/05/05 04:15:28;;;;;;;8.55;5.72;;;;;;;14.26;69.15;101417.22;5064382;28;20032;-77
2023/05/05 04:17:53;;;;;;;8.55;5.95;;;;;;;14.23;69.30;101417.31;5066740;28;20025;-77
2023/05/05 04:20:19;;;;;;;8.13;5.88;;;;;;;14.22;69.70;101426.06;5054437;28;20025;-77
2023/05/05 04:22:44;;;;;;;10.20;6.18;;;;;;;14.21;69.67;101430.44;5066202;28;20032;-77
2023/05/05 04:25:10;;;;;;;9.40;6.78;;;;;;;14.20;70.00;101433.09;5059367;28;20101;-77
2023/05/05 04:27:35;;;;;;;10.55;6.95;;;;;;;14.17;70.33;101427.97;5058072;28;20036;-77
2023/05/05 04:30:00;;;;;;;9.90;6.70;;;;;;;14.17;70.66;101427.97;5072999;28;20054;-77
2023/05/05 04:32:26;;;;;;;11.07;6.82;;;;;;;14.17;70.57;101433.22;5063977;28;20339;-76
2023/05/05 04:34:51;;;;;;;10.43;7.03;;;;;;;14.16;70.76;101431.50;5054849;28;20036;-77
2023/05/05 04:37:17;;;;;;;19.60;7.75;;;;;;;14.15;71.02;101437.63;5058502;28;20033;-77
2023/05/05 04:39:42;;;;;;;11.15;7.32;;;;;;;14.15;71.25;101440.25;5061101;28;20410;-77
2023/05/05 04:42:07;;;;;;;9.27;7.15;;;;;;;14.14;71.16;101444.63;5063928;28;20112;-77
2023/05/05 04:44:33;;;;;;;10.10;7.32;;;;;;;14.14;71.48;101451.63;5071519;28;20020;-77
2023/05/05 04:46:59;;;;;;;10.30;7.68;;;;;;;14.11;71.49;101435.09;5069346;28;20037;-77
2023/05/05 04:49:24;;;;;;;10.88;7.80;;;;;;;14.10;71.79;101433.41;5061427;28;20053;-77
2023/05/05 04:51:49;;;;;;;10.95;8.02;;;;;;;14.09;71.95;101441.31;5064259;28;20040;-77
2023/05/05 04:54:15;;;;;;;11.15;7.35;;;;;;;14.10;72.02;101445.59;5069173;28;20101;-77
2023/05/05 04:56:40;;;;;;;12.90;8.18;;;;;;;14.08;71.80;101436.97;5070924;28;20050;-77
2023/05/05 04:59:06;;;;;;;9.48;7.57;;;;;;;14.07;72.11;101438.72;5057428;28;20112;-77
2023/05/05 05:01:31;;;;;;;9.77;7.63;;;;;;;14.05;72.18;101437.91;5065302;28;20097;-77
2023/05/05 05:03:56;;;;;;;12.38;8.45;;;;;;;14.05;72.25;101443.13;5062800;28;20028;-77
2023/05/05 05:06:22;;;;;;;10.60;7.85;;;;;;;14.04;72.19;101438.81;5059721;28;20055;-77
2023/05/05 05:08:47;;;;;;;12.90;8.25;;;;;;;14.03;72.20;101442.31;5067478;28;20078;-77
2023/05/05 05:11:12;;;;;;;10.85;8.07;;;;;;;14.04;72.45;101438.81;5065300;28;20074;-77
2023/05/05 05:13:38;;;;;;;11.23;8.32;;;;;;;14.04;72.29;101443.19;5064834;28;20319;-77
2023/05/05 05:16:05;;;;;;;10.95;7.47;;;;;;;14.03;72.40;101442.31;5063354;28;20097;-77
2023/05/05 05:18:30;;;;;;;11.35;7.95;;;;;;;14.01;72.84;101441.50;5061052;28;20482;-76
2023/05/05 05:20:55;;;;;;;12.45;8.00;;;;;;;13.98;72.80;101444.25;5061881;28;20092;-76
2023/05/05 05:23:20;;;;;;;10.95;8.32;;;;;;;13.96;72.96;101443.44;5056496;28;20033;-76
2023/05/05 05:25:46;;;;;;;10.73;8.23;;;;;;;13.94;73.66;101433.00;5069782;28;20016;-75
2023/05/05 05:28:12;;;;;;;12.00;8.15;;;;;;;13.95;73.63;101439.09;5067432;28;20542;-75
2023/05/05 05:30:37;;;;;;;11.75;7.82;;;;;;;14.00;73.32;101429.38;5065569;28;20024;-75
2023/05/05 05:33:02;;;;;;;11.82;8.55;;;;;;;13.99;73.76;101443.34;5067837;28;20397;-75
2023/05/05 05:35:27;;;;;;;10.70;8.05;;;;;;;14.02;73.77;101439.78;5069318;28;20027;-76
2023/05/05 05:37:53;;;;;;;14.10;8.00;;;;;;;14.05;74.28;101440.53;5068151;28;20648;-75
2023/05/05 05:40:18;;;;;;;12.38;8.60;;;;;;;14.10;74.19;101448.22;5067772;28;20039;-75
2023/05/05 05:42:43;;;;;;;13.55;8.82;;;;;;;14.13;74.09;101449.91;5066540;28;20557;-76
2023/05/05 05:45:09;;;;;;;12.60;9.05;;;;;;;14.16;73.16;101452.44;5067618;28;20032;-76
2023/05/05 05:47:34;;;;;;;16.02;9.52;;;;;;;14.20;72.63;101448.78;5068428;28;20035;-78
2023/05/05 05:50:00;;;;;;;11.70;9.02;;;;;;;14.24;72.52;101450.41;5068267;28;20497;-78
2023/05/05 05:52:25;;;;;;;11.27;9.00;;;;;;;14.29;72.37;101459.00;5066593;28;20022;-78
2023/05/05 05:54:50;;;;;;;12.63;8.88;;;;;;;14.35;72.25;101452.69;5065105;28;20134;-78
2023/05/05 05:57:16;;;;;;;11.27;9.02;;;;;;;14.39;71.82;101459.56;5064567;28;20455;-79
2023/05/05 05:59:41;;;;;;;11.00;9.00;;;;;;;14.44;71.71;101457.63;5066190;28;20041;-79
2023/05/05 06:02:06;;;;;;;11.43;8.57;;;;;;;14.48;71.44;101463.66;5063764;28;20040;-78
2023/05/05 06:04:32;;;;;;;14.68;8.32;;;;;;;14.53;71.99;101470.44;5065793;28;20071;-78
2023/05/05 06:06:57;;;;;;;13.75;8.60;;;;;;;14.61;72.37;101470.19;5064429;28;20037;-78
2023/05/05 06:09:22;;;;;;;13.43;8.73;;;;;;;14.65;71.33;101486.66;5066938;28;20503;-78
2023/05/05 06:11:47;;;;;;;13.77;8.90;;;;;;;14.68;71.10;101497.94;5064747;28;20032;-78
2023/05/05 06:14:13;;;;;;;14.77;9.23;;;;;;;14.73;71.96;101518.72;5064925;28;20038;-78
2023/05/05 06:16:38;;;;;;;12.63;9.50;;;;;;;14.75;71.87;101506.44;5065923;28;20481;-78
2023/05/05 06:19:08;;;;;;;13.98;9.07;;;;;;;14.78;71.92;101508.94;5064940;28;20111;-78
2023/05/05 06:21:34;;;;;;;12.57;9.02;;;;;;;14.83;71.77;101503.56;5062864;28;20066;-78
2023/05/05 06:24:00;;;;;;;11.45;8.52;;;;;;;14.90;71.61;101497.19;5064189;28;20488;-78
2023/05/05 06:26:25;;;;;;;14.23;8.40;;;;;;;14.98;72.56;101499.56;5060998;28;20085;-78
2023/05/05 06:28:50;;;;;;;12.57;8.35;;;;;;;15.05;72.04;101505.44;5057452;28;20542;-78
2023/05/05 06:31:16;;;;;;;13.00;8.77;;;;;;;15.10;72.31;101508.78;5063106;28;20032;-76
2023/05/05 06:33:41;;;;;;;14.20;8.23;;;;;;;15.17;72.02;101520.78;5065924;28;20853;-76
2023/05/05 06:36:07;;;;;;;14.38;8.90;;;;;;;15.26;72.02;101519.63;5061839;28;20032;-76
2023/05/05 06:38:32;;;;;;;12.20;8.32;;;;;;;15.31;72.20;101521.16;5063367;28;20029;-76
2023/05/05 06:40:57;;;;;;;12.63;8.68;;;;;;;15.38;71.92;101513.94;5064316;28;20028;-79
2023/05/05 06:43:23;;;;;;;13.80;8.93;;;;;;;15.44;71.97;101518.09;5061679;28;20036;-79
2023/05/05 06:45:48;;;;;;;13.00;8.45;;;;;;;15.47;71.93;101512.75;5065528;28;20027;-76
2023/05/05 06:48:13;;;;;;;14.35;9.27;;;;;;;15.54;72.10;101516.00;5064735;28;20131;-76
2023/05/05 06:50:38;;;;;;;13.85;9.27;;;;;;;15.58;72.02;101510.59;5062456;28;20063;-76
2023/05/05 06:53:04;;;;;;;12.60;8.85;;;;;;;15.64;72.77;101514.75;5060246;28;20444;-76
2023/05/05 06:55:29;;;;;;;12.75;9.18;;;;;;;15.70;72.44;101511.06;5063995;28;20047;-76
2023/05/05 06:57:55;;;;;;;16.10;9.40;;;;;;;15.73;72.20;101505.69;5062107;28;20056;-76
2023/05/05 07:00:21;;;;;;;14.48;8.40;;;;;;;15.78;71.49;101516.88;5068168;28;20533;-76
2023/05/05 07:02:46;;;;;;;15.10;8.63;;;;;;;15.81;71.87;101511.53;5066252;28;20032;-76
2023/05/05 07:05:11;;;;;;;12.80;7.72;;;;;;;15.87;72.13;101521.84;5070164;28;20470;-76
2023/05/05 07:07:37;;;;;;;12.50;7.80;;;;;;;15.91;71.50;101518.16;5063133;28;20024;-76
2023/05/05 07:10:03;;;;;;;13.82;7.53;;;;;;;15.95;70.12;101523.31;5056973;28;20052;-79
2023/05/05 07:12:32;;;;;;;13.15;7.50;;;;;;;15.99;69.99;101519.66;5059347;28;20020;-76
2023/05/05 07:14:57;;;;;;;10.57;6.75;;;;;;;16.00;69.62;101516.97;5063522;28;20036;-77
2023/05/05 07:17:22;;;;;;;10.23;6.95;;;;;;;15.98;68.94;101515.31;5063851;28;20028;-77
2023/05/05 07:19:48;;;;;;;10.20;6.55;;;;;;;16.04;69.36;101525.59;5059488;28;20490;-76
2023/05/05 07:22:13;;;;;;;10.27;6.68;;;;;;;16.07;69.35;101525.44;5060318;28;20169;-76
2023/05/05 07:24:39;;;;;;;10.55;7.03;;;;;;;16.11;69.50;101534.94;5059923;28;21560;-76
2023/05/05 07:27:06;;;;;;;12.18;7.30;;;;;;;16.14;69.96;101540.06;5059261;28;20675;-76
2023/05/05 07:29:31;;;;;;;9.85;6.45;;;;;;;16.17;68.60;101539.97;5064316;28;20032;-76
2023/05/05 07:31:56;;;;;;;9.63;6.28;;;;;;;16.22;68.30;101540.66;5064506;28;20094;-76
2023/05/05 07:34:21;;;;;;;11.00;7.07;;;;;;;16.28;68.00;101531.69;5079004;28;20039;-76
2023/05/05 07:36:47;;;;;;;10.70;6.53;;;;;;;16.34;69.20;101538.44;5071824;28;20184;-76
2023/05/05 07:39:14;;;;;;;11.50;6.38;;;;;;;16.41;66.87;101539.91;5070313;28;20027;-76
2023/05/05 07:41:40;;;;;;;9.05;6.03;;;;;;;16.50;66.41;101536.06;5069073;28;20039;-76
2023/05/05 07:44:05;;;;;;;8.52;5.93;;;;;;;16.59;66.66;101529.59;5067668;28;20036;-75
2023/05/05 07:46:31;;;;;;;10.60;5.97;;;;;;;16.72;66.12;101533.47;5061789;28;20033;-76
2023/05/05 07:48:56;;;;;;;8.23;5.57;;;;;;;16.84;65.93;101525.06;5067735;28;20369;-77
2023/05/05 07:51:21;;;;;;;8.27;5.40;;;;;;;16.97;65.37;101524.56;5063144;28;20055;-77
2023/05/05 07:53:47;;;;;;;9.32;5.68;;;;;;;17.05;64.29;101527.75;5065846;28;20736;-77
2023/05/05 07:56:12;;;;;;;7.35;4.60;;;;;;;17.07;61.79;101530.31;5066539;28;20085;-77
2023/05/05 07:58:37;;;;;;;8.02;4.55;;;;;;;17.08;64.88;101522.34;5063835;28;20028;-77
2023/05/05 08:01:05;;;;;;;7.70;4.88;;;;;;;17.13;65.46;101519.53;5067788;28;20052;-76
2023/05/05 08:03:30;;;;;;;9.95;5.18;;;;;;;17.20;64.12;101525.38;5067113;28;20362;-76
2023/05/05 08:05:55;;;;;;;7.47;5.05;;;;;;;17.26;63.15;101525.97;5066141;28;20146;-76
2023/05/05 08:08:25;;;;;;;7.93;4.80;;;;;;;17.33;62.84;101521.31;5069203;28;20032;-76
2023/05/05 08:10:51;;;;;;;7.72;4.78;;;;;;;17.38;62.67;101505.31;5071772;28;20180;-76
2023/05/05 08:13:17;;;;;;;6.22;4.38;;;;;;;17.43;62.00;101514.72;5065535;28;20111;-75
2023/05/05 08:15:43;;;;;;;8.10;4.20;;;;;;;17.49;62.94;101515.38;5065524;28;20613;-76
2023/05/05 08:18:09;;;;;;;18.75;4.93;;;;;;;17.58;61.14;101512.34;5065947;28;20103;-76
2023/05/05 08:20:34;;;;;;;10.32;4.35;;;;;;;17.63;61.68;101515.59;5065465;28;20031;-76
2023/05/05 08:22:59;;;;;;;7.30;3.83;;;;;;;17.68;62.14;101511.00;5063835;28;20477;-76
2023/05/05 08:25:25;;;;;;;8.73;4.13;;;;;;;17.74;62.34;101521.25;5063412;28;20115;-76
2023/05/05 08:27:51;;;;;;;7.82;4.30;;;;;;;17.79;60.88;101517.53;5062445;28;20038;-77
2023/05/05 08:30:19;;;;;;;6.55;3.63;;;;;;;17.81;61.15;101520.97;5067342;28;20036;-76
2023/05/05 08:32:45;;;;;;;6.90;3.75;;;;;;;17.86;60.39;101522.44;5067736;28;20036;-76
2023/05/05 08:35:10;;;;;;;6.53;3.38;;;;;;;17.93;60.39;101523.06;5068142;28;20073;-76
2023/05/05 08:37:36;;;;;;;4.80;3.08;;;;;;;18.02;61.06;101530.53;5067556;28;20024;-76
2023/05/05 08:40:02;;;;;;;5.22;3.08;;;;;;;18.10;60.76;101516.19;5065626;28;20036;-76
2023/05/05 08:42:28;;;;;;;6.90;3.13;;;;;;;18.19;59.87;101531.53;5069893;28;20033;-76
2023/05/05 08:44:54;;;;;;;6.22;3.45;;;;;;;18.27;59.81;101521.50;5064446;28;20028;-76
2023/05/05 08:47:19;;;;;;;5.68;3.10;;;;;;;18.40;58.73;101534.09;5062155;28;20382;-76
2023/05/05 08:49:46;;;;;;;4.93;3.00;;;;;;;18.45;58.68;101527.66;5066252;28;20036;-76
2023/05/05 08:52:17;;;;;;;4.95;2.80;;;;;;;18.48;59.44;101522.25;5061556;28;20577;-76
2023/05/05 08:54:55;;;;;;;4.50;2.80;;;;;;;18.53;59.46;101535.19;5062423;28;20035;-76
2023/05/05 08:57:31;;;;;;;5.78;2.67;;;;;;;18.59;58.78;101534.91;5068150;28;20032;-76
2023/05/05 08:59:57;;;;;;;4.95;3.28;;;;;;;18.68;60.12;101533.63;5065408;28;20421;-76
2023/05/05 09:02:27;;;;;;;4.78;2.45;;;;;;;18.72;58.30;101532.50;5066560;28;20480;-76
2023/05/05 09:04:52;;;;;;;5.38;2.85;;;;;;;18.74;56.88;101537.72;5063738;28;20028;-77
2023/05/05 09:07:17;;;;;;;7.00;3.65;;;;;;;18.74;58.36;101535.94;5065204;28;20366;-76
2023/05/05 09:09:43;;;;;;;6.30;3.50;;;;;;;18.73;58.08;101531.59;5061882;28;20101;-76
2023/05/05 09:12:08;;;;;;;6.10;3.75;;;;;;;18.70;58.07;101529.13;5061394;28;20028;-76
2023/05/05 09:14:34;;;;;;;5.25;3.47;;;;;;;18.70;57.98;101538.78;5064913;28;20727;-77
2023/05/05 09:17:01;;;;;;;5.93;3.50;;;;;;;18.69;58.00;101537.09;5063625;28;20561;-76
2023/05/05 09:19:26;;;;;;;5.53;3.58;;;;;;;18.70;58.64;101537.03;5069895;28;21573;-77
2023/05/05 09:21:52;;;;;;;7.72;3.75;;;;;;;18.68;58.90;101538.00;5063719;28;20062;-76
2023/05/05 09:24:17;;;;;;;5.47;3.55;;;;;;;18.72;59.39;101531.69;5069040;28;20044;-77
2023/05/05 09:26:46;;;;;;;7.43;3.53;;;;;;;18.81;60.70;101533.84;5068597;28;20349;-76
2023/05/05 09:29:19;;;;;;;5.72;3.50;;;;;;;18.94;59.03;101540.25;5072170;28;20494;-76
2023/05/05 09:32:04;;;;;;;6.63;3.75;;;;;;;19.08;58.82;101536.06;5072478;28;20046;-76
2023/05/05 09:34:31;;;;;;;6.82;3.15;;;;;;;19.14;57.34;101534.91;5071460;28;20028;-76
2023/05/05 09:36:56;;;;;;;5.35;3.08;;;;;;;19.16;56.87;101546.22;5071266;28;20028;-76
2023/05/05 09:39:22;;;;;;;5.68;2.53;;;;;;;19.16;55.74;101544.44;5076252;28;20356;-76
2023/05/05 09:41:47;;;;;;;5.50;2.47;;;;;;;19.17;55.47;101546.16;5073969;28;20067;-77
2023/05/05 09:44:15;;;;;;;3.92;2.42;;;;;;;19.18;57.51;101542.56;5072866;28;20388;-76
2023/05/05 09:46:51;;;;;;;6.78;2.92;;;;;;;19.19;57.22;101533.72;5069661;28;20078;-76
2023/05/05 09:49:19;;;;;;;9.52;3.08;;;;;;;19.18;55.45;101537.31;5058811;28;20028;-76
2023/05/05 09:51:45;;;;;;;4.82;2.90;;;;;;;19.17;54.81;101540.88;5061527;28;20111;-77
2023/05/05 09:54:24;;;;;;;6.05;2.95;;;;;;;19.17;56.32;101535.59;5063361;28;20028;-76
2023/05/05 09:56:50;;;;;;;6.05;3.22;;;;;;;19.15;56.01;101531.34;5065010;28;20098;-76
2023/05/05 09:59:15;;;;;;;5.60;2.95;;;;;;;19.08;55.75;101530.81;5058461;28;20032;-76
2023/05/05 10:01:42;;;;;;;4.32;2.92;;;;;;;19.04;55.78;101529.25;5067752;28;20097;-76
2023/05/05 10:04:21;;;;;;;6.20;3.15;;;;;;;19.03;56.35;101528.41;5060345;28;20351;-76
2023/05/05 10:06:47;;;;;;;4.38;3.08;;;;;;;19.00;55.88;101528.56;5060594;28;20052;-76
2023/05/05 10:09:13;;;;;;;5.38;2.95;;;;;;;18.98;57.13;101524.25;5063706;28;20561;-76
2023/05/05 10:11:41;;;;;;;7.28;3.28;;;;;;;18.96;56.89;101527.00;5056973;28;20071;-76
2023/05/05 10:14:07;;;;;;;7.50;3.00;;;;;;;18.96;56.45;101524.34;5062084;28;20028;-76
2023/05/05 10:16:34;;;;;;;6.20;3.20;;;;;;;18.94;56.30;101513.00;5062654;28;20028;-76
2023/05/05 10:19:03;;;;;;;5.05;2.97;;;;;;;18.91;57.69;101514.00;5063639;28;20051;-76
2023/05/05 10:21:37;;;;;;;4.95;3.28;;;;;;;18.90;58.20;101517.56;5067724;28;20032;-76
2023/05/05 10:24:10;;;;;;;6.13;3.47;;;;;;;18.88;57.73;101508.88;5063928;28;20032;-76
2023/05/05 10:26:39;;;;;;;4.53;3.00;;;;;;;18.89;57.53;101515.88;5068539;28;20354;-76
2023/05/05 10:29:12;;;;;;;4.57;2.30;;;;;;;18.86;56.55;101523.09;5072860;28;20053;-76
2023/05/05 10:31:48;;;;;;;3.83;2.40;;;;;;;18.81;57.85;101518.03;5068720;28;20058;-76
2023/05/05 10:34:29;;;;;;;4.38;2.25;;;;;;;18.77;56.40;101514.69;5066891;28;20071;-76
2023/05/05 10:36:56;;;;;;;4.43;2.20;;;;;;;18.73;55.66;101521.03;5058857;28;20034;-77
2023/05/05 10:39:22;;;;;;;4.45;2.30;;;;;;;18.74;56.52;101514.00;5060990;28;20036;-77
2023/05/05 10:41:49;;;;;;;4.65;2.22;;;;;;;18.70;56.09;101513.31;5063774;28;20260;-76
2023/05/05 10:44:16;;;;;;;3.97;2.10;;;;;;;18.64;55.98;101514.44;5064250;28;20028;-77
2023/05/05 10:46:42;;;;;;;3.55;2.10;;;;;;;18.56;55.97;101513.97;5066647;28;20038;-77
2023/05/05 10:49:32;;;;;;;3.65;1.80;;;;;;;18.50;58.09;101515.13;5061048;28;20703;-77
2023/05/05 10:52:11;;;;;;;4.90;2.17;;;;;;;18.42;57.75;101516.44;5061789;28;20170;-77
2023/05/05 10:54:46;;;;;;;5.28;2.00;;;;;;;18.32;59.03;101511.59;5065369;28;20110;-77
2023/05/05 10:57:15;;;;;;;5.25;2.22;;;;;;;18.22;61.65;101520.00;5062700;28;20553;-76
2023/05/05 10:59:41;;;;;;;4.22;1.88;;;;;;;18.11;60.24;101538.94;5067290;28;20032;-76
2023/05/05 11:02:26;;;;;;;5.22;2.70;;;;;;;18.00;60.86;101540.28;5063260;28;20043;-76
2023/05/05 11:05:12;;;;;;;3.25;1.90;;;;;;;17.89;61.06;101534.63;5058398;28;20438;-77
2023/05/05 11:07:38;;;;;;;2.97;1.88;;;;;;;17.78;62.61;101536.88;5059171;28;20043;-77
2023/05/05 11:10:05;;;;;;;3.95;1.60;;;;;;;17.72;61.51;101540.66;5063329;28;20053;-76
2023/05/05 11:12:32;;;;;;;3.58;1.40;;;;;;;17.68;62.57;101539.94;5059365;28;20040;-76
2023/05/05 11:15:25;;;;;;;4.53;1.45;;;;;;;17.65;60.83;101547.13;5064131;28;20032;-76
2023/05/05 11:17:51;;;;;;;7.53;1.70;;;;;;;17.58;64.31;101549.19;5059428;28;20142;-76
2023/05/05 11:20:38;;;;;;;2.85;1.45;;;;;;;17.55;66.37;101551.94;5063032;28;20027;-76
2023/05/05 11:23:03;;;;;;;4.30;2.00;;;;;;;17.51;67.18;101553.00;5055664;28;20037;-75
2023/05/05 11:25:39;;;;;;;4.28;2.20;;;;;;;17.39;68.97;101542.09;5061830;28;20035;-76